createdAt,value
2024-02-28T00:01:52.095Z,99750.94
2024-02-28T00:04:19.742Z,99746.50
2024-02-28T00:06:49.603Z,99752.41
2024-02-28T00:09:17.013Z,99750.97
2024-02-28T00:11:48.084Z,99761.97
2024-02-28T00:14:14.746Z,99754.19
2024-02-28T00:16:42.646Z,99757.69
2024-02-28T00:19:09.808Z,99778.00
2024-02-28T00:21:36.420Z,99768.59
2024-02-28T00:24:03.377Z,99773.16
2024-02-28T00:26:31.517Z,99778.94
2024-02-28T00:28:58.824Z,99784.16
2024-02-28T00:31:25.488Z,99794.09
2024-02-28T00:33:52.116Z,99790.03
2024-02-28T00:36:20.017Z,99785.16
2024-02-28T00:38:46.643Z,99795.97
2024-02-28T00:41:13.182Z,99800.50
2024-02-28T00:43:39.826Z,99798.63
2024-02-28T00:46:09.392Z,99789.88
2024-02-28T00:48:36.368Z,99793.25
2024-02-28T00:51:03.305Z,99793.59
2024-02-28T00:53:29.959Z,99793.66
2024-02-28T00:55:56.538Z,99795.91
2024-02-28T00:58:23.050Z,99805.91
2024-02-28T01:00:49.933Z,99799.06
2024-02-28T01:03:16.979Z,99807.75
2024-02-28T01:05:44.660Z,99806.81
2024-02-28T01:08:11.192Z,99799.00
2024-02-28T01:10:39.331Z,99800.06
2024-02-28T01:13:05.952Z,99810.72
2024-02-28T01:15:32.708Z,99790.34
2024-02-28T01:17:59.815Z,99797.06
2024-02-28T01:20:26.322Z,99808.78
2024-02-28T01:22:53.288Z,99797.28
2024-02-28T01:25:19.881Z,99800.53
2024-02-28T01:27:46.385Z,99799.53
2024-02-28T01:30:13.277Z,99809.66
2024-02-28T01:32:40.013Z,99808.06
2024-02-28T01:35:09.165Z,99812.22
2024-02-28T01:37:35.837Z,99825.78
2024-02-28T01:40:02.395Z,99827.44
2024-02-28T01:42:28.945Z,99829.94
2024-02-28T01:44:55.427Z,99826.63
2024-02-28T01:47:22.013Z,99825.66
2024-02-28T01:49:49.643Z,99829.63
2024-02-28T01:52:16.357Z,99828.91
2024-02-28T01:54:43.124Z,99830.53
2024-02-28T01:57:10.744Z,99829.38
2024-02-28T01:59:38.046Z,99826.97
2024-02-28T02:02:04.886Z,99826.91
2024-02-28T02:04:31.546Z,99823.88
2024-02-28T02:06:59.358Z,99832.94
2024-02-28T02:09:27.280Z,99829.97
2024-02-28T02:11:53.858Z,99834.19
2024-02-28T02:14:20.730Z,99844.97
2024-02-28T02:16:47.445Z,99833.81
2024-02-28T02:19:14.526Z,99832.69
2024-02-28T02:21:53.711Z,99830.16
2024-02-28T02:24:20.618Z,99823.56
2024-02-28T02:26:47.651Z,99832.63
2024-02-28T02:29:14.654Z,99832.41
2024-02-28T02:31:41.782Z,99838.50
2024-02-28T02:34:08.675Z,99822.56
2024-02-28T02:36:35.321Z,99834.97
2024-02-28T02:39:01.904Z,99819.06
2024-02-28T02:41:28.498Z,99832.41
2024-02-28T02:43:55.041Z,99833.28
2024-02-28T02:46:21.911Z,99830.50
2024-02-28T02:48:48.462Z,99829.88
2024-02-28T02:51:15.081Z,99835.47
2024-02-28T02:53:41.720Z,99837.78
2024-02-28T02:56:08.483Z,99848.31
2024-02-28T02:58:35.103Z,99844.06
2024-02-28T03:01:01.932Z,99841.53
2024-02-28T03:03:28.656Z,99851.63
2024-02-28T03:05:55.288Z,99850.03
2024-02-28T03:08:21.844Z,99865.31
2024-02-28T03:10:48.369Z,99860.34
2024-02-28T03:13:14.969Z,99861.28
2024-02-28T03:15:41.539Z,99868.53
2024-02-28T03:18:08.370Z,99867.66
2024-02-28T03:20:35.615Z,99869.59
2024-02-28T03:23:02.176Z,99879.66
2024-02-28T03:25:29.544Z,99872.69
2024-02-28T03:27:56.369Z,99868.19
2024-02-28T03:30:22.988Z,99891.88
2024-02-28T03:32:49.552Z,99879.31
2024-02-28T03:35:16.140Z,99873.16
2024-02-28T03:37:42.619Z,99882.47
2024-02-28T03:40:09.616Z,99888.56
2024-02-28T03:42:36.237Z,99893.44
2024-02-28T03:45:03.465Z,99892.63
2024-02-28T03:47:30.724Z,99901.09
2024-02-28T03:49:58.659Z,99911.03
2024-02-28T03:52:25.254Z,99894.03
2024-02-28T03:54:51.995Z,99902.38
2024-02-28T03:57:18.672Z,99901.38
2024-02-28T03:59:45.254Z,99901.47
2024-02-28T04:02:12.080Z,99905.22
2024-02-28T04:04:38.935Z,99907.66
2024-02-28T04:07:05.636Z,99900.22
2024-02-28T04:09:32.247Z,99906.81
2024-02-28T04:11:58.927Z,99911.56
2024-02-28T04:14:25.583Z,99916.81
2024-02-28T04:16:52.162Z,99911.56
2024-02-28T04:19:18.749Z,99918.41
2024-02-28T04:21:45.393Z,99927.25
2024-02-28T04:24:13.918Z,99929.47
2024-02-28T04:26:41.523Z,99933.69
2024-02-28T04:29:13.936Z,99932.66
2024-02-28T04:31:40.677Z,99948.81
2024-02-28T04:34:07.386Z,99955.91
2024-02-28T04:36:34.320Z,99959.13
2024-02-28T04:39:02.123Z,99973.50
2024-02-28T04:41:29.556Z,99979.03
2024-02-28T04:43:56.152Z,99984.72
2024-02-28T04:46:22.865Z,99980.19
2024-02-28T04:48:49.572Z,99978.47
2024-02-28T04:51:18.450Z,99974.53
2024-02-28T04:53:45.137Z,99981.06
2024-02-28T04:56:11.731Z,99982.31
2024-02-28T04:58:38.646Z,99981.25
2024-02-28T05:01:05.491Z,99985.72
2024-02-28T05:03:32.231Z,99987.63
2024-02-28T05:05:58.886Z,99986.25
2024-02-28T05:08:26.075Z,99992.34
2024-02-28T05:10:52.831Z,100002.06
2024-02-28T05:13:20.066Z,99998.91
2024-02-28T05:15:46.641Z,100010.66
2024-02-28T05:18:13.198Z,100017.06
2024-02-28T05:20:39.771Z,100014.81
2024-02-28T05:23:06.485Z,100009.38
2024-02-28T05:25:33.009Z,100018.16
2024-02-28T05:27:59.709Z,100022.97
2024-02-28T05:30:26.368Z,100019.34
2024-02-28T05:32:52.951Z,100032.75
2024-02-28T05:35:19.541Z,100025.34
2024-02-28T05:37:47.886Z,100030.38
2024-02-28T05:40:14.388Z,100042.16
2024-02-28T05:42:41.267Z,100033.56
2024-02-28T05:45:08.194Z,100033.78
2024-02-28T05:47:34.937Z,100040.72
2024-02-28T05:50:02.045Z,100050.88
2024-02-28T05:52:28.666Z,100046.72
2024-02-28T05:54:55.283Z,100041.72
2024-02-28T05:57:21.892Z,100048.13
2024-02-28T05:59:48.551Z,100063.38
2024-02-28T06:02:15.207Z,100067.41
2024-02-28T06:04:41.849Z,100059.78
2024-02-28T06:07:08.388Z,100062.44
2024-02-28T06:09:35.003Z,100067.59
2024-02-28T06:12:03.056Z,100068.84
2024-02-28T06:14:29.625Z,100064.72
2024-02-28T06:16:56.165Z,100060.09
2024-02-28T06:19:22.688Z,100064.72
2024-02-28T06:21:49.340Z,100055.59
2024-02-28T06:24:15.972Z,100063.28
2024-02-28T06:26:45.390Z,100061.22
2024-02-28T06:29:13.532Z,100061.00
2024-02-28T06:31:40.286Z,100061.56
2024-02-28T06:34:07.048Z,100054.69
2024-02-28T06:36:33.905Z,100046.03
2024-02-28T06:39:00.540Z,100047.75
2024-02-28T06:41:27.063Z,100052.13
2024-02-28T06:43:53.720Z,100052.84
2024-02-28T06:46:20.326Z,100058.34
2024-02-28T06:48:46.830Z,100049.75
2024-02-28T06:51:15.962Z,100055.28
2024-02-28T06:53:43.900Z,100069.88
2024-02-28T06:56:10.806Z,100064.25
2024-02-28T06:58:37.416Z,100057.22
2024-02-28T07:01:05.101Z,100063.22
2024-02-28T07:03:31.740Z,100058.03
2024-02-28T07:05:58.409Z,100064.78
2024-02-28T07:08:24.943Z,100064.16
2024-02-28T07:10:54.867Z,100057.59
2024-02-28T07:13:21.812Z,100074.06
2024-02-28T07:15:50.155Z,100080.59
2024-02-28T07:18:17.192Z,100094.19
2024-02-28T07:20:43.911Z,100092.75
2024-02-28T07:23:10.558Z,100100.94
2024-02-28T07:25:37.154Z,100105.34
2024-02-28T07:28:04.029Z,100103.63
2024-02-28T07:30:30.695Z,100114.13
2024-02-28T07:32:57.758Z,100119.56
2024-02-28T07:35:25.369Z,100128.34
2024-02-28T07:37:51.951Z,100125.34
2024-02-28T07:40:21.164Z,100119.03
2024-02-28T07:42:47.788Z,100126.59
2024-02-28T07:45:14.849Z,100139.41
2024-02-28T07:47:41.624Z,100142.81
2024-02-28T07:50:08.594Z,100143.78
2024-02-28T07:52:36.262Z,100152.44
2024-02-28T07:55:03.453Z,100154.81
2024-02-28T07:57:30.184Z,100154.13
2024-02-28T07:59:57.321Z,100157.78
2024-02-28T08:02:24.074Z,100168.41
2024-02-28T08:04:51.850Z,100170.34
2024-02-28T08:07:18.522Z,100180.31
2024-02-28T08:09:45.778Z,100186.00
2024-02-28T08:12:12.982Z,100190.34
2024-02-28T08:14:39.585Z,100193.28
2024-02-28T08:17:06.122Z,100192.56
2024-02-28T08:19:32.743Z,100196.78
2024-02-28T08:21:59.370Z,100190.75
2024-02-28T08:24:25.978Z,100195.53
2024-02-28T08:26:52.633Z,100207.13
2024-02-28T08:29:19.190Z,100205.44
2024-02-28T08:31:46.659Z,100210.72
2024-02-28T08:34:13.605Z,100223.63
2024-02-28T08:36:40.336Z,100215.06
2024-02-28T08:39:06.896Z,100215.63
2024-02-28T08:41:36.279Z,100217.53
2024-02-28T08:44:02.865Z,100211.56
2024-02-28T08:46:29.929Z,100221.19
2024-02-28T08:48:56.548Z,100221.66
2024-02-28T08:51:23.188Z,100220.00
2024-02-28T08:53:49.828Z,100226.59
2024-02-28T08:56:17.096Z,100223.00
2024-02-28T08:58:45.565Z,100221.66
2024-02-28T09:01:18.698Z,100228.22
2024-02-28T09:03:45.447Z,100225.78
2024-02-28T09:06:12.191Z,100230.25
2024-02-28T09:08:38.836Z,100241.94
2024-02-28T09:11:06.439Z,100255.16
2024-02-28T09:13:33.292Z,100260.59
2024-02-28T09:16:00.041Z,100270.41
2024-02-28T09:18:26.706Z,100279.84
2024-02-28T09:20:53.421Z,100284.97
2024-02-28T09:23:20.230Z,100298.25
2024-02-28T09:25:46.802Z,100298.63
2024-02-28T09:28:14.783Z,100299.53
2024-02-28T09:30:46.390Z,100318.38
2024-02-28T09:33:20.841Z,100328.84
2024-02-28T09:35:47.736Z,100321.88
2024-02-28T09:38:14.300Z,100326.97
2024-02-28T09:40:41.205Z,100327.94
2024-02-28T09:43:20.900Z,100333.31
2024-02-28T09:45:49.026Z,100358.53
2024-02-28T09:48:18.077Z,100366.63
2024-02-28T09:50:46.651Z,100370.81
2024-02-28T09:53:13.225Z,100373.66
2024-02-28T09:55:39.796Z,100410.13
2024-02-28T09:58:06.914Z,100412.03
2024-02-28T10:00:35.038Z,100421.06
2024-02-28T10:03:02.425Z,100429.06
2024-02-28T10:05:30.126Z,100427.47
2024-02-28T10:07:56.887Z,100442.13
2024-02-28T10:10:24.312Z,100441.81
2024-02-28T10:12:51.818Z,100452.47
2024-02-28T10:15:18.430Z,100455.22
2024-02-28T10:17:45.296Z,100486.00
2024-02-28T10:20:12.480Z,100490.44
2024-02-28T10:22:40.378Z,100504.13
2024-02-28T10:25:07.474Z,100516.25
2024-02-28T10:27:35.790Z,100518.66
2024-02-28T10:30:05.815Z,100539.75
2024-02-28T10:32:35.056Z,100550.81
2024-02-28T10:35:02.134Z,100552.81
2024-02-28T10:37:34.121Z,100561.00
2024-02-28T10:40:02.064Z,100563.59
2024-02-28T10:42:31.352Z,100544.19
2024-02-28T10:45:10.492Z,100553.53
2024-02-28T10:47:47.818Z,100554.63
2024-02-28T10:50:16.686Z,100549.59
2024-02-28T10:52:48.159Z,100547.78
2024-02-28T10:55:15.168Z,100543.84
2024-02-28T10:57:42.760Z,100540.41
2024-02-28T11:00:10.852Z,100548.56
2024-02-28T11:02:40.219Z,100545.16
2024-02-28T11:05:07.869Z,100535.78
2024-02-28T11:07:35.239Z,100560.78
2024-02-28T11:10:07.223Z,100566.06
2024-02-28T11:12:33.811Z,100558.09
2024-02-28T11:15:01.941Z,100569.78
2024-02-28T11:17:32.601Z,100584.97
2024-02-28T11:19:59.969Z,100577.34
2024-02-28T11:22:30.315Z,100607.66
2024-02-28T11:24:57.496Z,100580.03
2024-02-28T11:27:25.108Z,100596.19
2024-02-28T11:29:52.098Z,100587.22
2024-02-28T11:32:18.712Z,100616.50
2024-02-28T11:34:46.506Z,100593.19
2024-02-28T11:37:13.240Z,100597.34
2024-02-28T11:39:39.984Z,100594.69
2024-02-28T11:42:11.382Z,100583.53
2024-02-28T11:44:38.068Z,100586.88
2024-02-28T11:47:04.770Z,100582.75
2024-02-28T11:49:34.503Z,100585.19
2024-02-28T11:52:01.088Z,100589.72
2024-02-28T11:54:28.014Z,100594.25
2024-02-28T11:56:57.428Z,100595.41
2024-02-28T11:59:24.177Z,100589.97
2024-02-28T12:01:52.813Z,100597.31
2024-02-28T12:04:19.371Z,100579.41
2024-02-28T12:06:46.041Z,100587.00
2024-02-28T12:09:21.465Z,100596.03
2024-02-28T12:11:54.648Z,100597.78
2024-02-28T12:14:21.187Z,100593.75
2024-02-28T12:16:49.839Z,100585.03
2024-02-28T12:19:17.711Z,100574.91
2024-02-28T12:21:44.459Z,100581.16
2024-02-28T12:24:12.485Z,100595.44
2024-02-28T12:26:39.784Z,100585.53
2024-02-28T12:29:06.426Z,100574.81
2024-02-28T12:31:33.201Z,100572.66
2024-02-28T12:34:00.298Z,100583.97
2024-02-28T12:36:27.929Z,100587.53
2024-02-28T12:38:54.699Z,100591.84
2024-02-28T12:41:21.297Z,100593.00
2024-02-28T12:43:47.855Z,100582.88
2024-02-28T12:46:14.571Z,100573.28
2024-02-28T12:48:45.398Z,100568.78
2024-02-28T12:51:34.610Z,100561.22
2024-02-28T12:54:01.283Z,100567.16
2024-02-28T12:56:27.758Z,100560.00
2024-02-28T12:58:54.288Z,100546.34
2024-02-28T13:01:21.138Z,100555.22
2024-02-28T13:03:49.789Z,100554.28
2024-02-28T13:06:16.474Z,100541.63
2024-02-28T13:08:43.439Z,100567.09
2024-02-28T13:11:10.063Z,100553.44
2024-02-28T13:13:37.409Z,100539.47
2024-02-28T13:16:04.420Z,100542.06
2024-02-28T13:18:31.175Z,100550.66
2024-02-28T13:20:57.812Z,100530.16
2024-02-28T13:23:24.423Z,100538.88
2024-02-28T13:25:50.982Z,100543.59
2024-02-28T13:28:17.562Z,100540.34
2024-02-28T13:30:44.435Z,100530.97
2024-02-28T13:33:10.993Z,100524.69
2024-02-28T13:35:39.697Z,100516.00
2024-02-28T13:38:06.367Z,100514.81
2024-02-28T13:40:33.050Z,100509.22
2024-02-28T13:43:00.139Z,100516.75
2024-02-28T13:45:26.797Z,100509.34
2024-02-28T13:47:53.506Z,100524.03
2024-02-28T13:50:20.102Z,100520.22
2024-02-28T13:52:49.920Z,100510.97
2024-02-28T13:55:16.700Z,100509.78
2024-02-28T13:57:43.335Z,100503.19
2024-02-28T14:00:12.369Z,100512.47
2024-02-28T14:02:39.237Z,100508.53
2024-02-28T14:05:07.654Z,100508.16
2024-02-28T14:07:34.976Z,100505.47
2024-02-28T14:10:01.516Z,100502.06
2024-02-28T14:12:28.207Z,100497.06
2024-02-28T14:14:54.807Z,100504.84
2024-02-28T14:17:21.325Z,100511.69
2024-02-28T14:19:49.474Z,100507.88
2024-02-28T14:22:16.200Z,100504.81
2024-02-28T14:24:42.775Z,100504.28
2024-02-28T14:27:10.218Z,100505.56
2024-02-28T14:29:37.357Z,100512.34
2024-02-28T14:32:04.232Z,100504.69
2024-02-28T14:34:32.803Z,100511.50
2024-02-28T14:36:59.626Z,100498.09
2024-02-28T14:39:26.265Z,100503.84
2024-02-28T14:41:52.892Z,100496.69
2024-02-28T14:44:19.633Z,100492.50
2024-02-28T14:46:46.224Z,100498.47
2024-02-28T14:49:12.802Z,100494.22
2024-02-28T14:51:40.563Z,100504.34
2024-02-28T14:54:08.069Z,100496.78
2024-02-28T14:56:34.653Z,100508.88
2024-02-28T14:59:01.177Z,100498.69
2024-02-28T15:01:28.213Z,100493.03
2024-02-28T15:03:55.143Z,100494.56
2024-02-28T15:06:22.051Z,100494.34
2024-02-28T15:08:50.148Z,100494.84
2024-02-28T15:11:17.394Z,100489.94
2024-02-28T15:13:43.983Z,100498.47
2024-02-28T15:16:10.824Z,100496.28
2024-02-28T15:18:37.931Z,100487.16
2024-02-28T15:21:05.157Z,100489.66
2024-02-28T15:23:32.438Z,100483.59
2024-02-28T15:26:00.246Z,100486.38
2024-02-28T15:28:28.341Z,100494.72
2024-02-28T15:30:56.299Z,100499.16
2024-02-28T15:33:23.769Z,100489.25
2024-02-28T15:35:50.471Z,100487.69
2024-02-28T15:38:17.122Z,100481.09
2024-02-28T15:40:43.727Z,100485.31
2024-02-28T15:43:10.789Z,100482.69
2024-02-28T15:45:40.444Z,100481.00
2024-02-28T15:48:07.659Z,100470.84
2024-02-28T15:50:34.272Z,100466.28
2024-02-28T15:53:00.891Z,100470.72
2024-02-28T15:55:27.458Z,100466.03
2024-02-28T15:57:56.474Z,100464.34
2024-02-28T16:00:23.817Z,100470.00
2024-02-28T16:02:50.440Z,100465.66
2024-02-28T16:05:17.478Z,100469.78
2024-02-28T16:07:45.151Z,100458.94
2024-02-28T16:10:12.273Z,100451.94
2024-02-28T16:12:38.972Z,100452.63
2024-02-28T16:15:09.076Z,100462.78
2024-02-28T16:17:35.807Z,100461.28
2024-02-28T16:20:03.760Z,100460.56
2024-02-28T16:22:30.802Z,100480.31
2024-02-28T16:24:57.490Z,100460.81
2024-02-28T16:27:24.203Z,100457.66
2024-02-28T16:29:51.890Z,100466.88
2024-02-28T16:32:18.573Z,100459.91
2024-02-28T16:34:45.157Z,100469.31
2024-02-28T16:37:11.899Z,100471.06
2024-02-28T16:39:38.503Z,100451.78
2024-02-28T16:42:05.254Z,100462.91
2024-02-28T16:44:31.943Z,100465.25
2024-02-28T16:46:58.503Z,100461.59
2024-02-28T16:49:25.124Z,100467.59
2024-02-28T16:51:51.779Z,100458.97
2024-02-28T16:54:20.579Z,100457.91
2024-02-28T16:56:47.820Z,100458.59
2024-02-28T16:59:15.643Z,100462.06
2024-02-28T17:01:42.697Z,100462.09
2024-02-28T17:04:09.483Z,100463.31
2024-02-28T17:06:36.057Z,100464.84
2024-02-28T17:09:02.616Z,100465.72
2024-02-28T17:11:29.396Z,100470.91
2024-02-28T17:13:56.068Z,100474.25
2024-02-28T17:16:22.687Z,100470.16
2024-02-28T17:18:49.283Z,100466.34
2024-02-28T17:21:16.645Z,100475.13
2024-02-28T17:23:43.502Z,100474.44
2024-02-28T17:26:11.016Z,100477.59
2024-02-28T17:28:37.667Z,100477.34
2024-02-28T17:31:04.630Z,100474.84
2024-02-28T17:33:31.315Z,100476.88
2024-02-28T17:35:57.979Z,100473.19
2024-02-28T17:38:24.561Z,100475.69
2024-02-28T17:40:51.451Z,100479.69
2024-02-28T17:43:20.403Z,100471.84
2024-02-28T17:45:47.291Z,100487.94
2024-02-28T17:48:14.002Z,100484.31
2024-02-28T17:50:40.973Z,100486.72
2024-02-28T17:53:07.522Z,100490.69
2024-02-28T17:55:34.166Z,100493.31
2024-02-28T17:58:01.045Z,100491.44
2024-02-28T18:00:28.081Z,100497.84
2024-02-28T18:02:55.091Z,100495.28
2024-02-28T18:05:24.526Z,100500.88
2024-02-28T18:07:54.250Z,100491.59
2024-02-28T18:10:21.350Z,100494.56
2024-02-28T18:12:48.455Z,100500.28
2024-02-28T18:15:15.081Z,100495.09
2024-02-28T18:17:41.734Z,100492.50
2024-02-28T18:20:09.041Z,100499.28
2024-02-28T18:22:36.457Z,100505.00
2024-02-28T18:25:04.348Z,100503.25
2024-02-28T18:27:31.137Z,100502.38
2024-02-28T18:29:57.917Z,100513.09
2024-02-28T18:32:24.802Z,100504.41
2024-02-28T18:34:53.443Z,100505.81
2024-02-28T18:37:20.278Z,100503.13
2024-02-28T18:39:46.941Z,100512.34
2024-02-28T18:42:13.531Z,100511.50
2024-02-28T18:44:40.247Z,100513.03
2024-02-28T18:47:06.936Z,100517.13
2024-02-28T18:49:33.935Z,100524.13
2024-02-28T18:52:01.293Z,100514.50
2024-02-28T18:54:28.182Z,100511.41
2024-02-28T18:56:55.616Z,100511.31
2024-02-28T18:59:22.251Z,100510.94
2024-02-28T19:01:50.895Z,100512.69
2024-02-28T19:04:17.920Z,100516.00
2024-02-28T19:06:46.077Z,100522.00
2024-02-28T19:09:12.755Z,100510.88
2024-02-28T19:11:39.504Z,100521.88
2024-02-28T19:14:06.424Z,100516.56
2024-02-28T19:16:33.054Z,100524.19
2024-02-28T19:18:59.737Z,100526.59
2024-02-28T19:21:26.365Z,100522.28
2024-02-28T19:23:53.288Z,100529.09
2024-02-28T19:26:20.002Z,100521.19
2024-02-28T19:28:46.743Z,100520.25
2024-02-28T19:31:14.724Z,100525.44
2024-02-28T19:33:41.425Z,100522.00
2024-02-28T19:36:08.598Z,100522.78
2024-02-28T19:38:35.219Z,100523.53
2024-02-28T19:41:01.788Z,100520.84
2024-02-28T19:43:28.426Z,100529.25
2024-02-28T19:45:54.973Z,100525.72
2024-02-28T19:48:22.346Z,100524.75
2024-02-28T19:50:49.189Z,100532.41
2024-02-28T19:53:15.778Z,100530.56
2024-02-28T19:55:42.348Z,100532.09
2024-02-28T19:58:09.303Z,100533.94
2024-02-28T20:00:36.704Z,100529.34
2024-02-28T20:03:04.435Z,100533.28
2024-02-28T20:05:31.101Z,100549.41
2024-02-28T20:07:57.620Z,100539.06
2024-02-28T20:10:25.234Z,100535.59
2024-02-28T20:12:51.881Z,100550.72
2024-02-28T20:15:19.836Z,100545.34
2024-02-28T20:17:46.524Z,100548.47
2024-02-28T20:20:13.206Z,100555.31
2024-02-28T20:22:40.838Z,100555.47
2024-02-28T20:25:08.034Z,100557.72
2024-02-28T20:27:34.670Z,100554.38
2024-02-28T20:30:01.248Z,100548.41
2024-02-28T20:32:28.297Z,100554.97
2024-02-28T20:34:54.993Z,100555.53
2024-02-28T20:37:22.953Z,100554.56
2024-02-28T20:39:50.220Z,100554.50
2024-02-28T20:42:17.031Z,100547.66
2024-02-28T20:44:43.709Z,100551.03
2024-02-28T20:47:10.807Z,100549.31
2024-02-28T20:49:37.764Z,100549.38
2024-02-28T20:52:05.226Z,100552.00
2024-02-28T20:54:32.261Z,100544.13
2024-02-28T20:57:06.005Z,100546.56
2024-02-28T20:59:39.160Z,100539.84
2024-02-28T21:02:06.099Z,100535.59
2024-02-28T21:04:34.765Z,100536.13
2024-02-28T21:07:01.338Z,100538.69
2024-02-28T21:09:27.936Z,100527.44
2024-02-28T21:12:05.091Z,100536.06
2024-02-28T21:14:35.693Z,100525.59
2024-02-28T21:17:02.515Z,100531.03
2024-02-28T21:19:30.437Z,100534.84
2024-02-28T21:21:57.299Z,100525.91
2024-02-28T21:24:24.137Z,100511.28
2024-02-28T21:26:50.812Z,100514.53
2024-02-28T21:29:18.657Z,100508.53
2024-02-28T21:31:45.224Z,100503.28
2024-02-28T21:34:11.746Z,100503.81
2024-02-28T21:36:38.369Z,100498.03
2024-02-28T21:39:09.835Z,100496.31
2024-02-28T21:41:36.566Z,100501.22
2024-02-28T21:44:03.321Z,100505.56
2024-02-28T21:46:29.914Z,100496.78
2024-02-28T21:49:02.997Z,100488.19
2024-02-28T21:51:36.375Z,100491.63
2024-02-28T21:54:02.973Z,100487.00
2024-02-28T21:56:29.512Z,100482.53
2024-02-28T21:58:56.920Z,100482.38
2024-02-28T22:01:23.681Z,100477.84
2024-02-28T22:03:51.583Z,100470.78
2024-02-28T22:06:18.167Z,100476.66
2024-02-28T22:08:44.822Z,100476.44
2024-02-28T22:11:11.469Z,100468.16
2024-02-28T22:13:38.148Z,100466.31
2024-02-28T22:16:05.137Z,100466.03
2024-02-28T22:18:31.826Z,100462.59
2024-02-28T22:20:58.476Z,100460.03
2024-02-28T22:23:25.710Z,100453.97
2024-02-28T22:25:52.275Z,100450.88
2024-02-28T22:28:19.465Z,100457.66
2024-02-28T22:30:46.557Z,100442.84
2024-02-28T22:33:13.628Z,100442.78
2024-02-28T22:35:41.211Z,100434.66
2024-02-28T22:38:08.286Z,100439.75
2024-02-28T22:40:35.377Z,100441.34
2024-02-28T22:43:02.444Z,100427.25
2024-02-28T22:45:29.137Z,100429.31
2024-02-28T22:47:56.002Z,100419.28
2024-02-28T22:50:22.810Z,100416.56
2024-02-28T22:52:49.557Z,100410.66
2024-02-28T22:55:20.952Z,100407.00
2024-02-28T22:57:48.231Z,100400.81
2024-02-28T23:00:31.477Z,100398.84
2024-02-28T23:03:00.311Z,100389.69
2024-02-28T23:05:27.919Z,100385.44
2024-02-28T23:07:56.023Z,100384.81
2024-02-28T23:10:23.565Z,100379.72
2024-02-28T23:12:55.451Z,100374.84
2024-02-28T23:15:23.892Z,100380.75
2024-02-28T23:17:55.811Z,100383.94
2024-02-28T23:20:27.439Z,100370.22
2024-02-28T23:22:55.810Z,100366.00
2024-02-28T23:25:23.295Z,100376.84
2024-02-28T23:27:51.343Z,100368.66
2024-02-28T23:30:18.585Z,100361.78
2024-02-28T23:32:45.253Z,100360.66
2024-02-28T23:35:11.975Z,100357.22
2024-02-28T23:37:39.744Z,100356.47
2024-02-28T23:40:09.102Z,100352.25
2024-02-28T23:42:36.317Z,100351.22
2024-02-28T23:45:03.251Z,100345.16
2024-02-28T23:47:30.081Z,100344.50
2024-02-28T23:49:56.752Z,100346.19
2024-02-28T23:52:23.523Z,100342.13
2024-02-28T23:54:50.319Z,100335.34
2024-02-28T23:57:16.905Z,100331.19
2024-02-28T23:59:43.833Z,100335.34
